Time;durP1;ratioP1;P1;durP2;ratioP2;P2;SDS_P1;SDS_P2;PMS_P1;PMS_P2;Temp;Humidity;BMP_temperature;BMP_pressure;BME280_temperature;BME280_humidity;BME280_pressure;Samples;Min_cycle;Max_cycle;Signal;HPM_P1;HPM_P2
2022/12/19 00:02:38;;;;;;;;;;;;;;;-2.12;75.04;102842.56;5267933;33;33273;-72
2022/12/19 00:05:40;;;;;;;;;;;;;;;-1.73;74.82;102836.84;5286556;33;33929;-73
2022/12/19 00:08:43;;;;;;;;;;;;;;;-0.53;70.21;102833.06;5279534;33;34639;-72
2022/12/19 00:11:46;;;;;;;;;;;;;;;-0.56;71.14;102836.41;5285099;33;44483;-72
2022/12/19 00:14:48;;;;;;;;;;;;;;;-0.89;72.66;102846.09;5269591;33;35435;-73
2022/12/19 00:17:50;;;;;;;;;;;;;;;-1.12;74.44;102847.56;5279494;33;33740;-73
2022/12/19 00:20:55;;;;;;;;;;;;;;;-0.76;73.76;102847.53;5286878;33;33529;-72
2022/12/19 00:23:57;;;;;;;;;;;;;;;-1.62;76.56;102849.38;5263285;33;34819;-72
2022/12/19 00:26:59;;;;;;;;;;;;;;;-0.59;73.06;102830.22;5285429;33;34379;-71
2022/12/19 00:30:02;;;;;;;;;;;;;;;-2.16;77.81;102838.03;5265966;33;34268;-72
2022/12/19 00:33:04;;;;;;;;;;;;;;;-0.56;73.15;102840.69;5282388;33;33724;-73
2022/12/19 00:36:08;;;;;;;;;;;;;;;-1.06;74.90;102846.09;5278568;32;33708;-73
2022/12/19 00:39:10;;;;;;;;;;;;;;;-1.25;76.41;102842.63;5267965;32;33635;-72
2022/12/19 00:42:12;;;;;;;;;;;;;;;-1.40;76.44;102844.47;5288029;33;34290;-72
2022/12/19 00:45:14;;;;;;;;;;;;;;;-1.13;77.28;102848.38;5278408;33;34271;-72
2022/12/19 00:48:16;;;;;;;;;;;;;;;-1.49;77.25;102844.88;5294161;33;44340;-72
2022/12/19 00:51:23;;;;;;;;;;;;;;;-1.43;76.68;102849.47;5267849;33;33585;-73
2022/12/19 00:54:25;;;;;;;;;;;;;;;-1.11;77.34;102849.31;5295594;32;33946;-72
2022/12/19 00:57:27;;;;;;;;;;;;;;;-1.45;76.80;102844.25;5267561;33;33536;-73
2022/12/19 01:00:29;;;;;;;;;;;;;;;-1.35;76.92;102837.84;5284852;33;33926;-72
2022/12/19 01:03:31;;;;;;;;;;;;;;;-1.13;77.77;102835.47;5281552;33;33678;-71
2022/12/19 01:06:33;;;;;;;;;;;;;;;-1.63;77.26;102835.59;5278026;33;33440;-72
2022/12/19 01:09:35;;;;;;;;;;;;;;;-0.78;77.14;102838.81;5295131;33;33193;-72
2022/12/19 01:12:46;;;;;;;;;;;;;;;-1.86;78.81;102842.19;5265791;33;33582;-72
2022/12/19 01:15:48;;;;;;;;;;;;;;;-1.55;80.31;102834.25;5283175;33;45171;-73
2022/12/19 01:18:50;;;;;;;;;;;;;;;-0.96;75.96;102835.41;5280314;33;35174;-71
2022/12/19 01:21:52;;;;;;;;;;;;;;;0.08;72.02;102822.84;5267875;33;32988;-73
2022/12/19 01:24:54;;;;;;;;;;;;;;;-0.63;74.17;102816.28;5285723;33;34442;-71
2022/12/19 01:27:56;;;;;;;;;;;;;;;-0.61;75.03;102821.53;5277414;32;33271;-72
2022/12/19 01:30:58;;;;;;;;;;;;;;;-0.93;75.79;102814.88;5281064;33;33847;-71
2022/12/19 01:33:59;;;;;;;;;;;;;;;-0.91;75.87;102803.78;5271909;33;33806;-72
2022/12/19 01:37:02;;;;;;;;;;;;;;;-0.74;76.60;102796.84;5284421;33;33736;-71
2022/12/19 01:40:04;;;;;;;;;;;;;;;-2.15;79.45;102796.00;5251296;33;34212;-72
2022/12/19 01:43:08;;;;;;;;;;;;;;;-1.75;79.47;102784.28;5269651;33;34500;-71
2022/12/19 01:46:10;;;;;;;;;;;;;;;-1.06;77.89;102787.59;5297560;32;33251;-72
2022/12/19 01:49:33;;;;;;;;;;;;;;;-1.12;77.12;102779.56;5269269;33;33567;-72
2022/12/19 01:52:35;;;;;;;;;;;;;;;-1.29;78.19;102780.47;5285541;33;33732;-72
2022/12/19 01:55:37;;;;;;;;;;;;;;;-0.74;77.24;102781.34;5281653;32;33248;-73
2022/12/19 01:58:40;;;;;;;;;;;;;;;-0.96;76.99;102773.44;5289450;33;33575;-72
2022/12/19 02:01:42;;;;;;;;;;;;;;;-0.38;74.79;102757.97;5291705;33;33798;-73
2022/12/19 02:04:52;;;;;;;;;;;;;;;-0.79;75.36;102774.19;5269956;33;45197;-71
2022/12/19 02:07:54;;;;;;;;;;;;;;;0.56;71.37;102747.19;5287317;33;34100;-72
2022/12/19 02:10:56;;;;;;;;;;;;;;;0.74;69.37;102761.72;5269802;33;34321;-72
2022/12/19 02:13:58;;;;;;;;;;;;;;;0.61;69.81;102766.38;5286872;33;33422;-73
2022/12/19 02:17:06;;;;;;;;;;;;;;;-0.65;75.82;102768.81;5270637;33;33928;-72
2022/12/19 02:20:27;;;;;;;;;;;;;;;-0.97;78.08;102785.44;5282296;33;33847;-72
2022/12/19 02:23:49;;;;;;;;;;;;;;;-1.14;77.92;102782.09;5287269;33;34504;-72
2022/12/19 02:27:10;;;;;;;;;;;;;;;-0.86;78.27;102773.91;5268435;33;44526;-72
2022/12/19 02:30:15;;;;;;;;;;;;;;;-0.92;77.84;102770.16;5281519;33;35271;-73
2022/12/19 02:33:36;;;;;;;;;;;;;;;-0.41;75.32;102778.50;5269445;33;45115;-72
2022/12/19 02:36:39;;;;;;;;;;;;;;;-0.15;75.97;102782.19;5279309;32;34262;-72
2022/12/19 02:39:47;;;;;;;;;;;;;;;0.07;73.91;102789.19;5275444;32;33636;-73
2022/12/19 02:42:49;;;;;;;;;;;;;;;-1.04;76.11;102791.12;5269348;33;45661;-73
2022/12/19 02:45:51;;;;;;;;;;;;;;;-1.49;79.84;102792.41;5294567;32;33559;-72
2022/12/19 02:48:53;;;;;;;;;;;;;;;-1.08;79.22;102790.94;5282011;32;34195;-72
2022/12/19 02:51:55;;;;;;;;;;;;;;;-0.58;77.87;102791.56;5281455;33;33804;-73
2022/12/19 02:55:00;;;;;;;;;;;;;;;-0.86;78.30;102794.56;5285734;33;33860;-72
2022/12/19 02:58:20;;;;;;;;;;;;;;;-0.46;77.94;102786.03;5270170;33;33779;-73
2022/12/19 03:01:40;;;;;;;;;;;;;;;-0.36;76.46;102797.66;5295432;32;44462;-72
2022/12/19 03:05:02;;;;;;;;;;;;;;;0.16;75.65;102789.56;5273297;33;33746;-73
2022/12/19 03:08:16;;;;;;;;;;;;;;;-0.38;75.25;102794.16;5269147;33;33352;-72
2022/12/19 03:11:18;;;;;;;;;;;;;;;-0.20;75.23;102782.00;5295566;33;44558;-72
2022/12/19 03:14:20;;;;;;;;;;;;;;;-0.22;75.67;102785.34;5269443;33;35184;-72
2022/12/19 03:17:21;;;;;;;;;;;;;;;0.18;74.59;102780.16;5285098;33;33583;-72
2022/12/19 03:20:32;;;;;;;;;;;;;;;0.08;73.49;102781.47;5281429;32;34145;-72
2022/12/19 03:23:35;;;;;;;;;;;;;;;-0.36;75.57;102771.81;5274525;33;33062;-71
2022/12/19 03:26:37;;;;;;;;;;;;;;;-0.06;74.23;102767.97;5291671;32;33455;-71
2022/12/19 03:29:39;;;;;;;;;;;;;;;-0.48;74.87;102761.84;5277360;33;33524;-71
2022/12/19 03:32:41;;;;;;;;;;;;;;;-0.46;76.57;102752.44;5282691;33;34225;-73
2022/12/19 03:35:43;;;;;;;;;;;;;;;0.29;74.41;102744.38;5266912;33;33479;-72
2022/12/19 03:38:45;;;;;;;;;;;;;;;0.43;73.73;102754.47;5270390;33;44040;-72
2022/12/19 03:45:08;;;;;;;;;;;;;;;0.46;72.65;102745.97;5278758;32;33945;-73
2022/12/19 03:48:29;;;;;;;;;;;;;;;-0.08;74.19;102754.09;5296826;33;34162;-72
2022/12/19 03:51:34;;;;;;;;;;;;;;;1.15;70.17;102739.09;5280227;32;33077;-71
2022/12/19 03:54:38;;;;;;;;;;;;;;;0.88;69.29;102744.13;5295954;33;33191;-73
2022/12/19 03:57:41;;;;;;;;;;;;;;;0.25;72.53;102756.28;5279705;33;33697;-72
2022/12/19 04:00:46;;;;;;;;;;;;;;;0.17;72.61;102763.75;5282945;32;33929;-72
2022/12/19 04:03:48;;;;;;;;;;;;;;;0.29;72.26;102758.19;5293794;33;45046;-72
2022/12/19 04:06:50;;;;;;;;;;;;;;;-0.06;73.48;102765.41;5268741;33;32901;-72
2022/12/19 04:09:51;;;;;;;;;;;;;;;0.60;73.40;102754.25;5296539;32;32784;-72
2022/12/19 04:12:58;;;;;;;;;;;;;;;0.96;68.66;102747.88;5279987;32;33856;-72
2022/12/19 04:16:05;;;;;;;;;;;;;;;0.16;71.60;102748.19;5293903;32;33709;-73
2022/12/19 04:19:11;;;;;;;;;;;;;;;0.25;72.35;102766.66;5281461;33;33719;-72
2022/12/19 04:22:20;;;;;;;;;;;;;;;1.19;69.10;102751.34;5267545;33;34772;-73
2022/12/19 04:25:30;;;;;;;;;;;;;;;-0.17;73.56;102752.84;5295272;33;45030;-72
2022/12/19 04:28:34;;;;;;;;;;;;;;;1.54;67.93;102755.22;5268121;33;33788;-72
2022/12/19 04:31:35;;;;;;;;;;;;;;;1.17;66.41;102747.84;5290851;32;33749;-72
2022/12/19 04:34:37;;;;;;;;;;;;;;;1.66;66.27;102748.69;5266904;33;34815;-72
2022/12/19 04:37:43;;;;;;;;;;;;;;;1.41;66.64;102753.00;5273177;33;33368;-71
2022/12/19 04:40:45;;;;;;;;;;;;;;;1.69;65.90;102754.88;5271884;32;45366;-72
2022/12/19 04:43:47;;;;;;;;;;;;;;;1.52;66.33;102753.41;5268600;33;34191;-72
2022/12/19 04:46:49;;;;;;;;;;;;;;;0.93;68.44;102762.44;5284979;33;34035;-72
2022/12/19 04:49:51;;;;;;;;;;;;;;;1.24;68.74;102751.53;5269841;33;35140;-71
2022/12/19 04:52:53;;;;;;;;;;;;;;;0.85;70.76;102756.09;5290388;33;34149;-72
2022/12/19 04:56:04;;;;;;;;;;;;;;;0.48;71.69;102754.66;5268696;33;34642;-72
2022/12/19 04:59:06;;;;;;;;;;;;;;;1.14;70.46;102755.47;5268723;33;33728;-73
2022/12/19 05:02:08;;;;;;;;;;;;;;;0.35;73.72;102773.09;5283828;33;34010;-74
2022/12/19 05:05:10;;;;;;;;;;;;;;;0.61;72.53;102756.91;5268401;33;33599;-72
2022/12/19 05:08:12;;;;;;;;;;;;;;;0.25;74.36;102756.28;5286495;33;33261;-72
2022/12/19 05:11:14;;;;;;;;;;;;;;;0.65;72.95;102752.75;5271230;33;34119;-72
2022/12/19 05:14:20;;;;;;;;;;;;;;;0.55;73.62;102756.66;5295828;32;46247;-72
2022/12/19 05:17:22;;;;;;;;;;;;;;;0.57;73.65;102751.53;5271854;33;34492;-72
2022/12/19 05:20:24;;;;;;;;;;;;;;;0.67;73.66;102766.63;5270353;33;34237;-71
2022/12/19 05:23:26;;;;;;;;;;;;;;;0.96;71.34;102758.25;5287914;33;34277;-73
2022/12/19 05:26:27;;;;;;;;;;;;;;;0.38;73.21;102762.84;5279510;32;33253;-73
2022/12/19 05:29:29;;;;;;;;;;;;;;;1.25;72.26;102758.47;5294885;32;33926;-73
2022/12/19 05:32:32;;;;;;;;;;;;;;;1.39;69.72;102754.66;5268688;33;34227;-71
2022/12/19 05:35:34;;;;;;;;;;;;;;;1.86;69.99;102748.56;5293100;32;33877;-71
2022/12/19 05:38:36;;;;;;;;;;;;;;;1.05;72.54;102737.03;5259066;33;36397;-73
2022/12/19 05:41:38;;;;;;;;;;;;;;;1.29;71.47;102737.94;5272412;32;34719;-72
2022/12/19 05:44:40;;;;;;;;;;;;;;;1.07;71.40;102736.25;5286211;33;33742;-72
2022/12/19 05:47:45;;;;;;;;;;;;;;;0.84;71.92;102754.31;5280181;33;33672;-72
2022/12/19 05:50:48;;;;;;;;;;;;;;;0.91;73.25;102756.34;5295545;33;44744;-72
2022/12/19 05:53:50;;;;;;;;;;;;;;;1.25;72.05;102740.34;5270454;33;35045;-72
2022/12/19 05:56:52;;;;;;;;;;;;;;;1.59;70.31;102745.91;5293229;33;32957;-72
2022/12/19 05:59:54;;;;;;;;;;;;;;;1.73;69.50;102742.91;5282522;32;34505;-72
2022/12/19 06:02:55;;;;;;;;;;;;;;;2.33;67.28;102738.00;5280005;32;33957;-72
2022/12/19 06:06:01;;;;;;;;;;;;;;;1.38;70.50;102731.31;5285556;33;33832;-72
2022/12/19 06:09:02;;;;;;;;;;;;;;;2.18;68.74;102743.56;5280300;32;33798;-73
2022/12/19 06:12:04;;;;;;;;;;;;;;;2.65;66.26;102745.09;5295619;33;33340;-72
2022/12/19 06:15:06;;;;;;;;;;;;;;;2.80;65.47;102751.59;5269474;33;33344;-73
2022/12/19 06:18:08;;;;;;;;;;;;;;;2.55;65.43;102753.41;5292429;33;34458;-73
2022/12/19 06:21:13;;;;;;;;;;;;;;;2.69;65.10;102749.53;5277965;32;33503;-72
2022/12/19 06:24:15;;;;;;;;;;;;;;;2.51;65.56;102751.56;5278883;32;44488;-73
2022/12/19 06:27:17;;;;;;;;;;;;;;;2.54;64.76;102754.25;5295184;33;34001;-71
2022/12/19 06:30:19;;;;;;;;;;;;;;;2.23;65.97;102754.97;5268947;33;33656;-71
2022/12/19 06:33:21;;;;;;;;;;;;;;;2.46;65.64;102752.25;5290477;32;33728;-74
2022/12/19 06:39:32;;;;;;;;;;;;;;;2.47;66.20;102762.69;5336744;32;34227;-76
2022/12/19 06:42:34;;;;;;;;;;;;;;;2.63;65.72;102756.25;5328608;32;34414;-80
2022/12/19 06:45:36;;;;;;;;;;;;;;;2.40;67.08;102763.31;5334509;32;35301;-72
2022/12/19 06:48:38;;;;;;;;;;;;;;;3.03;71.94;102763.56;5323751;32;33055;-76
2022/12/19 06:51:40;;;;;;;;;;;;;;;5.83;73.70;102763.34;5322356;32;33044;-73
2022/12/19 06:54:42;;;;;;;;;;;;;;;7.83;56.21;102757.50;5311546;32;33145;-69
2022/12/19 06:57:44;;;;;;;;;;;;;;;6.60;51.90;102754.22;5326651;32;34444;-73
2022/12/19 07:00:47;;;;;;;;;;;;;;;5.32;54.90;102752.78;5337055;32;46563;-73
2022/12/19 07:03:48;;;;;;;;;;;;;;;4.32;57.83;102758.41;5326860;32;33589;-73
2022/12/19 07:06:50;;;;;;;;;;;;;;;3.68;60.26;102756.75;5340471;32;34516;-72
2022/12/19 07:09:52;;;;;;;;;;;;;;;3.49;61.52;102777.88;5320093;32;33684;-75
2022/12/19 07:12:54;;;;;;;;;;;;;;;3.58;61.30;102772.03;5335901;32;33172;-71
2022/12/19 07:15:57;;;;;;;;;;;;;;;3.34;62.07;102782.63;5330487;32;34987;-70
2022/12/19 07:18:59;;;;;;;;;;;;;;;2.93;63.01;102784.91;5324666;32;33516;-76
2022/12/19 07:22:02;;;;;;;;;;;;;;;2.25;64.93;102788.75;5334294;32;36101;-83
2022/12/19 07:25:04;;;;;;;;;;;;;;;2.41;65.50;102784.12;5327709;32;32990;-81
2022/12/19 07:28:06;;;;;;;;;;;;;;;2.63;64.41;102777.03;5328082;32;33159;-75
2022/12/19 07:31:08;;;;;;;;;;;;;;;2.15;64.81;102779.81;5325808;32;34324;-69
2022/12/19 07:34:10;;;;;;;;;;;;;;;2.08;65.33;102781.31;5319592;32;34131;-70
2022/12/19 07:37:15;;;;;;;;;;;;;;;2.19;65.24;102786.88;5332028;32;33682;-72
2022/12/19 07:40:17;;;;;;;;;;;;;;;1.90;64.83;102786.75;5329376;32;43370;-73
2022/12/19 07:43:19;;;;;;;;;;;;;;;1.24;66.99;102791.28;5338547;32;33138;-72
2022/12/19 07:46:21;;;;;;;;;;;;;;;1.42;66.64;102785.91;5313969;32;33120;-73
2022/12/19 07:49:23;;;;;;;;;;;;;;;1.87;65.36;102780.59;5327828;32;33717;-74
2022/12/19 07:52:25;;;;;;;;;;;;;;;2.14;64.68;102771.12;5306272;32;33416;-75
2022/12/19 07:55:27;;;;;;;;;;;;;;;1.84;65.55;102765.78;5333123;32;33180;-75
2022/12/19 07:58:29;;;;;;;;;;;;;;;2.36;64.03;102782.22;5335032;32;34840;-71
2022/12/19 08:01:31;;;;;;;;;;;;;;;1.97;65.16;102790.44;5327773;32;33573;-71
2022/12/19 08:04:33;;;;;;;;;;;;;;;2.00;65.12;102808.72;5327353;32;34199;-69
2022/12/19 08:07:36;;;;;;;;;;;;;;;2.20;63.38;102799.00;5314779;32;33098;-70
2022/12/19 08:10:37;;;;;;;;;;;;;;;2.33;61.79;102793.41;5339039;32;33061;-71
2022/12/19 08:13:40;;;;;;;;;;;;;;;2.14;62.01;102794.50;5326391;32;30813;-70
2022/12/19 08:16:47;;;;;;;;;;;;;;;2.14;61.33;102807.47;5331156;32;46846;-72
2022/12/19 08:20:12;;;;;;;;;;;;;;;2.06;59.01;102818.38;5333737;32;35855;-80
2022/12/19 08:23:14;;;;;;;;;;;;;;;1.72;57.35;102816.31;5323067;32;33354;-70
2022/12/19 08:26:23;;;;;;;;;;;;;;;1.42;59.01;102821.25;5336701;32;37929;-92
2022/12/19 08:29:26;;;;;;;;;;;;;;;2.16;56.90;102820.47;5322326;32;34597;-80
2022/12/19 08:32:28;;;;;;;;;;;;;;;1.94;56.39;102810.22;5335559;32;33524;-70
2022/12/19 08:35:30;;;;;;;;;;;;;;;2.39;54.69;102813.47;5324056;32;34866;-72
2022/12/19 08:38:32;;;;;;;;;;;;;;;2.07;55.20;102805.50;5321923;32;34327;-72
2022/12/19 08:41:35;;;;;;;;;;;;;;;1.87;56.82;102789.25;5340817;32;32452;-69
2022/12/19 08:44:37;;;;;;;;;;;;;;;1.94;57.10;102784.28;5324877;32;34267;-72
2022/12/19 08:47:39;;;;;;;;;;;;;;;2.02;56.80;102795.78;5337713;32;34271;-75
2022/12/19 08:51:07;;;;;;;;;;;;;;;2.39;56.30;102790.13;5316580;32;33040;-75
2022/12/19 08:54:11;;;;;;;;;;;;;;;2.34;56.38;102799.47;5321368;32;33186;-74
2022/12/19 08:57:13;;;;;;;;;;;;;;;1.61;59.14;102793.50;5336831;32;32985;-74
2022/12/19 09:00:15;;;;;;;;;;;;;;;2.34;56.52;102784.78;5327687;32;32924;-75
2022/12/19 09:03:19;;;;;;;;;;;;;;;2.17;56.48;102783.31;5340943;32;44555;-82
2022/12/19 09:06:24;;;;;;;;;;;;;;;1.79;57.96;102784.59;5329803;32;34044;-69
2022/12/19 09:09:26;;;;;;;;;;;;;;;1.89;58.24;102782.37;5332940;32;33578;-69
2022/12/19 09:12:28;;;;;;;;;;;;;;;1.62;58.89;102781.44;5323420;32;34290;-68
2022/12/19 09:15:31;;;;;;;;;;;;;;;2.33;57.61;102777.81;5313984;32;33755;-80
2022/12/19 09:18:33;;;;;;;;;;;;;;;2.42;55.67;102778.09;5340669;32;33151;-86
2022/12/19 09:21:35;;;;;;;;;;;;;;;2.27;57.14;102769.84;5315689;32;33526;-82
2022/12/19 09:24:37;;;;;;;;;;;;;;;2.55;56.39;102784.56;5327170;32;34242;-76
2022/12/19 09:27:39;;;;;;;;;;;;;;;2.52;56.51;102781.03;5317075;32;35820;-83
2022/12/19 09:31:10;;;;;;;;;;;;;;;2.86;55.33;102795.94;5328211;32;33290;-68
2022/12/19 09:34:12;;;;;;;;;;;;;;;2.88;55.03;102807.25;5335602;32;33302;-69
2022/12/19 09:37:14;;;;;;;;;;;;;;;2.62;55.86;102796.91;5315356;32;35166;-83
2022/12/19 09:40:18;;;;;;;;;;;;;;;2.44;55.77;102792.00;5334187;32;44588;-73
2022/12/19 09:43:39;;;;;;;;;;;;;;;2.81;54.79;102771.53;5324890;32;34366;-71
2022/12/19 09:46:49;;;;;;;;;;;;;;;2.73;54.60;102753.13;5332975;32;33161;-70
2022/12/19 09:49:53;;;;;;;;;;;;;;;3.15;53.80;102758.69;5318118;32;43292;-73
2022/12/19 09:52:59;;;;;;;;;;;;;;;3.22;53.54;102755.47;5307205;32;33041;-76
2022/12/19 09:56:01;;;;;;;;;;;;;;;2.56;54.89;102750.00;5339557;32;32984;-73
2022/12/19 09:59:06;;;;;;;;;;;;;;;2.44;55.94;102757.38;5326745;32;33047;-76
2022/12/19 10:02:23;;;;;;;;;;;;;;;3.00;53.57;102745.28;5335507;32;34278;-69
2022/12/19 10:05:44;;;;;;;;;;;;;;;2.72;54.96;102741.84;5331165;32;44656;-81
2022/12/19 10:09:12;;;;;;;;;;;;;;;2.96;53.65;102739.13;5319238;32;33420;-75
2022/12/19 10:12:53;;;;;;;;;;;;;;;2.98;54.25;102732.25;5342403;32;35073;-70
2022/12/19 10:16:09;;;;;;;;;;;;;;;2.87;53.58;102717.16;5310072;32;33027;-72
2022/12/19 10:19:21;;;;;;;;;;;;;;;2.93;54.09;102726.03;5325375;32;33099;-72
2022/12/19 10:22:22;;;;;;;;;;;;;;;3.29;52.95;102727.06;5332572;32;45244;-78
2022/12/19 10:25:48;;;;;;;;;;;;;;;2.93;54.70;102725.16;5328062;32;33653;-71
2022/12/19 10:28:50;;;;;;;;;;;;;;;3.23;54.17;102717.38;5322663;32;46343;-74
2022/12/19 10:32:11;;;;;;;;;;;;;;;3.69;52.30;102731.63;5330170;32;33474;-72
2022/12/19 10:35:15;;;;;;;;;;;;;;;3.59;52.60;102725.28;5327364;32;33499;-72
2022/12/19 10:38:31;;;;;;;;;;;;;;;3.37;52.96;102715.16;5337981;32;44164;-71
2022/12/19 10:41:34;;;;;;;;;;;;;;;3.38;53.17;102711.69;5317737;32;36908;-74
2022/12/19 10:44:44;;;;;;;;;;;;;;;3.61;52.39;102702.81;5339749;32;32969;-73
2022/12/19 10:48:05;;;;;;;;;;;;;;;3.46;52.07;102695.47;5314792;32;44425;-69
2022/12/19 10:51:12;;;;;;;;;;;;;;;3.36;53.35;102695.19;5305010;32;33503;-76
2022/12/19 10:54:14;;;;;;;;;;;;;;;2.51;55.28;102693.56;5338698;32;34048;-75
2022/12/19 10:57:17;;;;;;;;;;;;;;;2.82;55.46;102697.97;5324670;32;33068;-73
2022/12/19 11:00:19;;;;;;;;;;;;;;;3.78;53.07;102692.81;5340834;32;44387;-74
2022/12/19 11:03:22;;;;;;;;;;;;;;;2.98;54.33;102692.41;5325538;32;33173;-72
2022/12/19 11:06:36;;;;;;;;;;;;;;;4.08;51.68;102677.97;5327371;32;33707;-74
2022/12/19 11:09:39;;;;;;;;;;;;;;;4.21;50.52;102673.94;5337444;32;32964;-72
2022/12/19 11:12:50;;;;;;;;;;;;;;;3.75;52.03;102677.16;5323807;32;33525;-89
2022/12/19 11:16:12;;;;;;;;;;;;;;;4.11;51.36;102666.75;5338820;32;35974;-74
2022/12/19 11:19:35;;;;;;;;;;;;;;;4.62;49.95;102674.00;5323595;32;33469;-77
2022/12/19 11:22:59;;;;;;;;;;;;;;;4.50;50.15;102672.00;5329407;32;34154;-75
2022/12/19 11:26:32;;;;;;;;;;;;;;;4.28;50.28;102673.25;5334464;32;45187;-70
2022/12/19 11:29:54;;;;;;;;;;;;;;;3.99;51.10;102669.06;5321210;32;44578;-74
2022/12/19 11:33:16;;;;;;;;;;;;;;;3.75;52.20;102675.44;5321301;32;34896;-76
2022/12/19 11:36:30;;;;;;;;;;;;;;;2.70;55.09;102667.31;5329277;32;44562;-70
2022/12/19 11:39:39;;;;;;;;;;;;;;;4.47;50.98;102658.03;5305510;32;33650;-75
2022/12/19 11:42:47;;;;;;;;;;;;;;;4.63;49.34;102658.38;5333891;32;33051;-73
2022/12/19 11:46:16;;;;;;;;;;;;;;;5.15;48.54;102645.53;5330827;32;34867;-73
2022/12/19 11:49:26;;;;;;;;;;;;;;;5.27;48.34;102637.06;5315805;32;45008;-76
2022/12/19 11:52:35;;;;;;;;;;;;;;;4.15;50.48;102642.56;5320903;32;33039;-67
2022/12/19 11:56:04;;;;;;;;;;;;;;;5.40;48.07;102624.28;5327244;32;33453;-73
2022/12/19 11:59:18;;;;;;;;;;;;;;;5.70;47.21;102620.47;5332603;32;44446;-74
2022/12/19 12:02:20;;;;;;;;;;;;;;;5.19;48.75;102621.31;5335801;32;34584;-79
2022/12/19 12:05:46;;;;;;;;;;;;;;;5.81;48.36;102611.09;5328638;32;33629;-77
2022/12/19 12:08:58;;;;;;;;;;;;;;;4.36;49.45;102600.50;5336374;32;44260;-86
2022/12/19 12:12:28;;;;;;;;;;;;;;;8.04;41.85;102595.31;5326827;32;46961;-71
2022/12/19 12:15:55;;;;;;;;;;;;;;;6.59;43.70;102606.13;5330988;32;45047;-83
2022/12/19 12:19:19;;;;;;;;;;;;;;;5.06;47.99;102614.09;5341482;32;45631;-84
2022/12/19 12:22:45;;;;;;;;;;;;;;;7.27;43.65;102609.50;5329160;32;34922;-80
2022/12/19 12:26:16;;;;;;;;;;;;;;;8.08;41.23;102589.22;5325106;32;34550;-81
2022/12/19 12:29:43;;;;;;;;;;;;;;;8.45;39.85;102584.22;5339843;32;35105;-78
2022/12/19 12:33:25;;;;;;;;;;;;;;;7.41;42.39;102593.97;5327134;32;33489;-87
2022/12/19 12:36:47;;;;;;;;;;;;;;;7.44;42.27;102585.25;5325730;32;33460;-75
2022/12/19 12:40:21;;;;;;;;;;;;;;;6.20;45.22;102603.00;5321500;32;34358;-78
2022/12/19 12:43:24;;;;;;;;;;;;;;;6.57;44.13;102602.59;5323733;32;44644;-75
2022/12/19 12:46:27;;;;;;;;;;;;;;;5.28;47.37;102603.22;5331535;32;33156;-71
2022/12/19 12:49:44;;;;;;;;;;;;;;;5.81;46.50;102597.16;5284849;32;34557;-70
2022/12/19 12:52:48;;;;;;;;;;;;;;;5.93;47.77;102595.66;5289899;32;44621;-77
2022/12/19 12:55:50;;;;;;;;;;;;;;;7.84;42.70;102586.44;5308791;32;32995;-75
2022/12/19 12:59:03;;;;;;;;;;;;;;;9.43;38.96;102571.34;5302086;32;33036;-72
2022/12/19 13:02:19;;;;;;;;;;;;;;;7.03;42.44;102581.38;5317018;32;34202;-72
2022/12/19 13:05:23;;;;;;;;;;;;;;;5.67;45.36;102583.91;5324282;32;44673;-70
2022/12/19 13:08:39;;;;;;;;;;;;;;;5.69;46.71;102572.63;5323893;32;33150;-72
2022/12/19 13:15:28;;;;;;;;;;;;;;;3.58;53.13;102593.50;5325433;32;33359;-72
2022/12/19 13:18:32;;;;;;;;;;;;;;;3.28;53.46;102582.31;5325429;32;35061;-71
2022/12/19 13:21:52;;;;;;;;;;;;;;;4.46;50.91;102580.78;5328895;32;33316;-74
2022/12/19 13:24:55;;;;;;;;;;;;;;;4.33;51.43;102582.25;5321844;32;44543;-73
2022/12/19 13:27:59;;;;;;;;;;;;;;;4.51;50.64;102574.81;5333507;32;33068;-73
2022/12/19 13:31:04;;;;;;;;;;;;;;;3.43;53.57;102581.00;5319515;32;33503;-76
2022/12/19 13:34:23;;;;;;;;;;;;;;;3.82;52.12;102555.94;5335414;32;44809;-76
2022/12/19 13:37:26;;;;;;;;;;;;;;;3.37;53.91;102557.44;5289730;32;1028494;-71
2022/12/19 13:41:00;;;;;;;;;;;;;;;3.50;53.33;102566.44;5319616;32;45810;-72
2022/12/19 13:44:02;;;;;;;;;;;;;;;2.58;56.80;102574.41;5338009;32;33428;-78
2022/12/19 13:47:04;;;;;;;;;;;;;;;1.43;59.12;102564.78;5327086;32;32999;-69
2022/12/19 13:50:26;;;;;;;;;;;;;;;3.21;55.04;102557.91;5336810;32;34531;-75
2022/12/19 13:53:28;;;;;;;;;;;;;;;2.60;57.60;102561.44;5320234;32;33801;-69
2022/12/19 13:56:30;;;;;;;;;;;;;;;2.63;56.83;102567.59;5328514;32;33124;-70
2022/12/19 13:59:32;;;;;;;;;;;;;;;2.80;57.20;102569.78;5338104;32;33041;-71
2022/12/19 14:02:37;;;;;;;;;;;;;;;2.90;56.91;102570.09;5320402;32;34295;-69
2022/12/19 14:05:46;;;;;;;;;;;;;;;2.83;56.90;102557.75;5330503;32;45213;-73
2022/12/19 14:09:22;;;;;;;;;;;;;;;3.19;54.72;102559.59;5324000;32;33444;-77
2022/12/19 14:16:25;;;;;;;;;;;;;;;2.83;56.54;102573.34;5340038;32;33364;-70
2022/12/19 14:19:49;;;;;;;;;;;;;;;2.22;57.93;102562.94;5320985;32;32892;-79
2022/12/19 14:22:56;;;;;;;;;;;;;;;2.68;55.95;102557.34;5308265;32;46167;-77
2022/12/19 14:25:58;;;;;;;;;;;;;;;2.97;55.34;102559.03;5328395;32;34281;-74
2022/12/19 14:29:27;;;;;;;;;;;;;;;2.28;58.49;102555.34;5326267;32;45002;-70
2022/12/19 14:32:50;;;;;;;;;;;;;;;1.71;60.00;102557.91;5330351;32;45338;-70
2022/12/19 14:36:12;;;;;;;;;;;;;;;1.69;59.93;102564.75;5327283;32;34495;-78
2022/12/19 14:39:27;;;;;;;;;;;;;;;1.00;62.80;102562.44;5325241;32;43374;-76
2022/12/19 14:46:20;;;;;;;;;;;;;;;0.95;63.03;102561.41;5322826;32;34004;-78
2022/12/19 14:49:42;;;;;;;;;;;;;;;0.90;63.22;102571.63;5321164;32;34923;-69
2022/12/19 14:53:07;;;;;;;;;;;;;;;1.53;61.24;102566.84;5309379;32;33430;-73
2022/12/19 14:56:33;;;;;;;;;;;;;;;1.50;61.86;102573.66;5329088;32;33789;-71
2022/12/19 14:59:54;;;;;;;;;;;;;;;1.12;62.95;102572.37;5322668;32;44943;-73
2022/12/19 15:02:59;;;;;;;;;;;;;;;2.11;60.07;102563.47;5339388;32;33722;-72
2022/12/19 15:06:08;;;;;;;;;;;;;;;2.19;58.78;102550.75;5328483;32;32722;-71
2022/12/19 15:09:30;;;;;;;;;;;;;;;1.65;61.66;102560.28;5319842;32;33939;-74
2022/12/19 15:16:35;;;;;;;;;;;;;;;2.28;59.38;102555.34;5321327;32;34687;-73
2022/12/19 15:19:37;;;;;;;;;;;;;;;1.13;61.75;102579.28;5339619;32;33350;-74
2022/12/19 15:22:39;;;;;;;;;;;;;;;1.06;63.70;102575.63;5326189;32;33146;-72
2022/12/19 15:25:41;;;;;;;;;;;;;;;1.81;60.90;102583.31;5341969;32;33058;-73
2022/12/19 15:29:05;;;;;;;;;;;;;;;1.59;61.36;102581.72;5332848;32;33303;-78
2022/12/19 15:32:16;;;;;;;;;;;;;;;1.07;62.84;102575.66;5320745;32;33093;-75
2022/12/19 15:35:19;;;;;;;;;;;;;;;1.07;63.53;102575.66;5340381;32;44444;-69
2022/12/19 15:38:20;;;;;;;;;;;;;;;1.00;64.36;102578.87;5321220;32;33683;-72
2022/12/19 15:41:23;;;;;;;;;;;;;;;1.18;62.92;102578.63;5335649;32;34252;-69
2022/12/19 15:44:29;;;;;;;;;;;;;;;1.09;63.75;102583.47;5323562;32;33748;-77
2022/12/19 15:47:31;;;;;;;;;;;;;;;1.08;63.73;102582.59;5312740;32;34072;-72
2022/12/19 15:50:35;;;;;;;;;;;;;;;1.34;62.72;102583.47;5326489;32;33205;-76
2022/12/19 15:53:37;;;;;;;;;;;;;;;1.48;62.30;102577.88;5318250;32;33043;-77
2022/12/19 15:56:45;;;;;;;;;;;;;;;1.77;61.71;102573.66;5341078;32;33494;-76
2022/12/19 15:59:47;;;;;;;;;;;;;;;1.06;63.01;102575.63;5315669;32;43171;-73
2022/12/19 16:02:49;;;;;;;;;;;;;;;0.76;63.50;102573.69;5341117;32;33269;-74
2022/12/19 16:06:12;;;;;;;;;;;;;;;0.59;65.50;102574.81;5337138;32;34845;-72
2022/12/19 16:09:24;;;;;;;;;;;;;;;1.49;62.92;102556.34;5329817;32;32839;-76
2022/12/19 16:12:29;;;;;;;;;;;;;;;1.57;62.34;102558.34;5326465;32;33719;-77
2022/12/19 16:15:32;;;;;;;;;;;;;;;1.46;62.30;102558.81;5316730;32;33019;-76
2022/12/19 16:18:35;;;;;;;;;;;;;;;1.64;62.26;102567.19;5342480;32;33586;-77
2022/12/19 16:21:37;;;;;;;;;;;;;;;1.67;62.65;102556.03;5328594;32;34259;-73
2022/12/19 16:24:38;;;;;;;;;;;;;;;0.95;64.93;102557.09;5322928;32;34271;-74
2022/12/19 16:27:41;;;;;;;;;;;;;;;0.59;65.19;102561.00;5341790;32;33480;-76
2022/12/19 16:30:43;;;;;;;;;;;;;;;1.54;63.72;102562.53;5323446;32;34018;-76
2022/12/19 16:33:45;;;;;;;;;;;;;;;1.54;63.11;102545.25;5339493;32;33592;-77
2022/12/19 16:36:48;;;;;;;;;;;;;;;1.54;62.08;102547.84;5321566;32;43905;-73